METAR / TAF

Die METAR- und TAF-Liste ist aus technischen Gründen (Verfügbarkeit, Update-Zyklen) nicht für ein Meteo-Briefing gedacht. Benutzen Sie stattdessen skybriefing der Skyguide  oder das TAMSI (MeteoSchweiz-eigene Meteo Selfbriefing-Plattform für Firmen aus der Aviatik; Anfragen über das

Kontaktformular

METAR Schweiz

METAR     LSZH 200420Z VRB02KT CAVOK M03/M04 Q1031 NOSIG=
METAR     LSZH 200450Z 36003KT CAVOK M03/M04 Q1031 NOSIG=
METAR     LSGG 200420Z AUTO 06009KT CAVOK 04/M02 Q1028 NOSIG=
METAR     LSGG 200450Z 07008KT CAVOK 04/M03 Q1028 NOSIG=
METAR     LFSB 200500Z 15002KT CAVOK M03/M03 Q1032 NOSIG=
METAR     LSZB 200420Z AUTO VRB01KT CAVOK M05/M05 Q1029=
METAR     LSZB 200450Z AUTO VRB01KT CAVOK M05/M05 Q1030=
METAR     LSZA 200420Z AUTO VRB01KT CAVOK 01/M03 Q1029=
METAR     LSZA 200450Z AUTO VRB02KT CAVOK 00/M03 Q1029=
METAR     LSZG 200420Z AUTO 07002KT CAVOK M03/M03 Q1030=
METAR     LSZG 200450Z AUTO 05004KT 9999 NSC M01/M03 Q1030=
METAR     LSZR 200420Z AUTO VRB02KT CAVOK M03/M03 Q1031=
METAR     LSZR 200450Z AUTO 13002KT CAVOK M02/M03 Q1031=
METAR     LSGS 200420Z AUTO VRB01KT CAVOK M00/M05 Q1029=
METAR     LSGS 200450Z AUTO VRB01KT CAVOK M01/M05 Q1029=
METAR     LSGC 200420Z AUTO 03005KT 350V060 CAVOK M01/M06 Q1028=
METAR     LSGC 200450Z AUTO 00000KT CAVOK M02/M05 Q1028=
METAR     LSZC 200420Z AUTO 24004KT CAVOK M02/M04 Q1030=
METAR     LSZC 200450Z AUTO 23002KT CAVOK M02/M04 Q1031=
METAR RRA LSZL 200420Z AUTO 00000KT 9999NDV NCD M00/M04 Q1030 RMK=
METAR     LSZL 200450Z AUTO 08003KT 040V100 9999NDV NCD M01/M04
               Q1030 RMK=
METAR     LSZS 200420Z AUTO VRB02KT CAVOK M15/M16 Q1026=
METAR     LSZS 200450Z AUTO 20002KT CAVOK M15/M17 Q1026=
METAR RRA LSMA 200420Z AUTO 19004KT 9999NDV NCD M03/M04 Q1031 RMK=
METAR     LSMA 200450Z AUTO VRB01KT 9999NDV NCD M03/M05 Q1031 RMK=
METAR RRA LSMD 200420Z AUTO 00000KT 9999NDV NCD M03/M03 Q1031 RMK=
METAR     LSMD 200450Z AUTO 00000KT 9999NDV NCD M04/M04 Q1031 RMK=
METAR RRA LSME 200420Z AUTO 00000KT 9999NDV NCD M03/M05 Q1031 RMK=
METAR     LSME 200450Z AUTO 00000KT 9999NDV NCD M04/M05 Q1031 RMK=
METAR RRA LSMM 200420Z AUTO 09007KT 9999NDV NCD M00/M06 Q1030 RMK=
METAR     LSMM 200450Z AUTO 10007KT 9999NDV NCD M00/M06 Q1030 RMK=
METAR RRA LSMP 200420Z AUTO VRB02KT 9999NDV NCD M01/M03 Q1030 RMK=
METAR     LSMP 200450Z AUTO 24003KT 9999NDV NCD M02/M05 Q1030 RMK=
METAR     LSMS 200420Z AUTO VRB01KT CAVOK M00/M05 Q1029=
METAR     LSMS 200450Z AUTO VRB01KT CAVOK M01/M05 Q1029=
Aktualisiert am Mittwoch, 20. März 2019, 06:14 Uhr

TAF Schweiz

TAF     LSZH 200225Z 2003/2109 VRB03KT CAVOK TX11/2015Z TNM04/2005Z
             TNM03/2105Z BECMG 2008/2011 05010KT PROB40 TEMPO
             2012/2017 06015G25KT 9999 FEW050 BECMG 2019/2022
             06005KT BECMG 2022/2024 34004KT=
TAF     LSGG 200225Z 2003/2109 05008KT CAVOK TX11/2015Z TN04/2006Z
             TN00/2106Z BECMG 2008/2010 05015G25KT BECMG 2020/2022
             05007KT=
TAF     LFSB 192300Z 2000/2024 35005KT CAVOK TEMPO 2013/2017
             35010KT=
TAF     LSZL 200225Z 2003/2012 VRB03KT CAVOK=
TAF     LSMA 191625Z 1917/2023 03008KT 9999 FEW075 BECMG 1918/1921
             CAVOK PROB40 2003/2009 4000 BR SCT004 PROB30
             2004/2008 2000 BCFG BKN004 BECMG 2010/2012 06010KT
             PROB40 2012/2016 9999 FEW045 BECMG 2017/2020 VRB03KT=
TAF     LSMD 191625Z 1917/2023 09004KT 9999 FEW070 SCT085 BECMG
             1919/1921 CAVOK PROB30 2003/2008 4000 BR SCT005 BECMG
             2010/2012 06010KT PROB40 2011/2016 9999 FEW040 BECMG
             2017/2019 09004KT=
TAF     LSME 191625Z 1917/2023 05006KT 9999 FEW065 BECMG 1918/1921
             CAVOK PROB40 2003/2009 4000 BR SCT004 PROB30
             2004/2008 2000 BCFG BKN003 BECMG 2010/2012 04010KT
             PROB40 2012/2016 9999 FEW040=
TAF     LSMM 191625Z 1917/2023 08005KT 9999 SCT070 BECMG 1918/1921
             CAVOK PROB30 2003/2009 4000 MIFG SCT003 BECMG
             2008/2011 08010KT PROB40 2011/2017 09015G27KT 9999
             FEW030 BECMG 2019/2021 VRB03KT=
TAF     LSMP 191625Z 1917/2023 04007KT CAVOK TEMPO 2010/2018
             06015G25KT=
Aktualisiert am Mittwoch, 20. März 2019, 05:05 Uhr